Terminal Aerodrome Forecast
Issued by NWS Huntsville, AL

Home | Current Version | Previous Version | Text Only | Print | Product List | Glossary On
Versions: 1 2 3 4 5 6 7 8 9 10 11 12
000
FTUS44 KHUN 172320
TAFMSL
TAF
KMSL 172320Z 1800/1824 11006KT P6SM BKN060 BKN150
     FM180500 12006KT P6SM BKN035 OVC060
     FM181800 06006KT P6SM OVC050=

USA.gov is the U.S. government's official web portal to all federal, state and local government web resources and services.